»·PEaware :: UAL448 KASE-KLAS

UAL448 :: KASE-KLAS

FLIGHT INFORMATION

Flight Status: Arrived
Operator:
United Airlines
More flights by this operator :: More flights under this callsign
Pilot: Patricio R. (14780)
Aircraft: BOEING 737-300
(B733)
More flights by this aircraft type
Origin: KASE Aspen-Pitkin Co/Sardy
United States
Destination: KLAS McCarran Intl
United States
More flights between these airports :: More routes between these airports
Route: +LINDZ8 JNC HVE J60 BCE LUXOR2
File this flight plan on PilotEdge
Remarks: PBN / A1B3B4B5D3D4 DOF / 171017 REG / N372SB EET / KZLC0028 KZLA0050 OPR / UAL RMK / TCAS SIMBRIEF
Altitude:
(Current/Filed)
36,000ft
Speed:
(Current/Filed)
432kts
Departed: 16-Oct-17 05:54 PM
Arrived: 16-Oct-17 07:13 PM
Distance/Time
Traveled:
436nm/1:19
Distance/Time
To Go:
Arrived

Flight Plot

Page will automatically refresh every two minutes.

Flight plan parsing failed; only flown route is shown


Map Options




Map Legend


Flown Route
Filed Route
Departure Airport
Arrival Airport
Navaid (VOR, NDB)
Fix

Horizontal Profiles

Position Reports

Time Latitude Longitude Heading Altitude Ground
Speed
16-Oct-17 17:40 39.219829 -106.865332 161 7825ft 0kts
16-Oct-17 17:41 39.219829 -106.865332 161 7825ft 0kts
16-Oct-17 17:42 39.219829 -106.865332 161 7825ft 0kts
16-Oct-17 17:43 39.219829 -106.865332 161 7825ft 0kts
16-Oct-17 17:44 39.219829 -106.865332 161 7825ft 0kts
16-Oct-17 17:45 39.219829 -106.865332 161 7825ft 0kts
16-Oct-17 17:46 39.219829 -106.865332 161 7825ft 0kts
16-Oct-17 17:47 39.219829 -106.865332 161 7825ft 0kts
16-Oct-17 17:48 39.219829 -106.865332 161 7825ft 0kts
16-Oct-17 17:49 39.219829 -106.865332 161 7825ft 0kts
16-Oct-17 17:50 39.219829 -106.865332 161 7825ft 0kts
16-Oct-17 17:51 39.219829 -106.865332 161 7825ft 0kts
16-Oct-17 17:52 39.219829 -106.865332 161 7825ft 0kts
16-Oct-17 17:53 39.219829 -106.865332 161 7825ft 0kts
16-Oct-17 17:54 39.219829 -106.865332 160 7825ft 0kts
16-Oct-17 17:55 39.219829 -106.865332 161 7825ft 0kts
16-Oct-17 17:56 39.218950 -106.865536 179 7825ft 11kts
16-Oct-17 17:57 39.216073 -106.864265 159 7825ft 18kts
16-Oct-17 17:58 39.211981 -106.862644 203 7825ft 8kts
16-Oct-17 17:59 39.220740 -106.867689 339 7825ft 110kts
16-Oct-17 18:00 39.262806 -106.883466 349 8333ft 186kts
16-Oct-17 18:01 39.306745 -106.914215 283 10196ft 205kts
16-Oct-17 18:02 39.322177 -106.993985 281 12302ft 247kts
16-Oct-17 18:03 39.340775 -107.086010 303 14396ft 287kts
16-Oct-17 18:04 39.395241 -107.163924 310 17282ft 298kts
16-Oct-17 18:05 39.420269 -107.258431 250 19770ft 309kts
16-Oct-17 18:06 39.367641 -107.348432 257 21939ft 318kts
16-Oct-17 18:07 39.341253 -107.458888 255 24042ft 328kts
16-Oct-17 18:08 39.311942 -107.571644 255 26001ft 334kts
16-Oct-17 18:09 39.286146 -107.682236 259 27380ft 350kts
16-Oct-17 18:10 39.260331 -107.812904 258 27942ft 392kts
16-Oct-17 18:11 39.233183 -107.948823 258 30082ft 389kts
16-Oct-17 18:12 39.206353 -108.082394 258 31997ft 384kts
16-Oct-17 18:13 39.179564 -108.214899 258 33619ft 382kts
16-Oct-17 18:14 39.152376 -108.346358 258 35035ft 378kts
16-Oct-17 18:15 39.125449 -108.477217 258 36182ft 377kts
16-Oct-17 18:16 39.098297 -108.609049 258 36392ft 385kts
16-Oct-17 18:17 39.071255 -108.739688 257 36386ft 384kts
16-Oct-17 18:18 39.035124 -108.869440 249 36387ft 387kts
16-Oct-17 18:19 38.993374 -108.996265 250 36384ft 386kts
16-Oct-17 18:20 38.951514 -109.123498 250 36385ft 387kts
16-Oct-17 18:21 38.909681 -109.250203 250 36356ft 386kts
16-Oct-17 18:22 38.867947 -109.375472 250 36359ft 387kts
16-Oct-17 18:23 38.825665 -109.502528 250 36357ft 387kts
16-Oct-17 18:24 38.783382 -109.629151 250 36357ft 387kts
16-Oct-17 18:25 38.741582 -109.754145 249 36357ft 388kts
16-Oct-17 18:26 38.699145 -109.880480 249 36358ft 388kts
16-Oct-17 18:27 38.656302 -110.007111 249 36357ft 388kts
16-Oct-17 18:28 38.613345 -110.133494 249 36357ft 388kts
16-Oct-17 18:29 38.570359 -110.259396 249 36358ft 388kts
16-Oct-17 18:30 38.527139 -110.385432 249 36387ft 387kts
16-Oct-17 18:31 38.483942 -110.510866 249 36395ft 387kts
16-Oct-17 18:32 38.440468 -110.636559 249 36394ft 387kts
16-Oct-17 18:33 38.392351 -110.757201 242 36398ft 390kts
16-Oct-17 18:34 38.338802 -110.876248 244 36391ft 388kts
16-Oct-17 18:35 38.285641 -110.995744 244 36395ft 388kts
16-Oct-17 18:36 38.232420 -111.114963 243 36392ft 388kts
16-Oct-17 18:37 38.179170 -111.233802 243 36395ft 388kts
16-Oct-17 18:38 38.125627 -111.352724 243 36394ft 388kts
16-Oct-17 18:39 38.071794 -111.471740 244 36399ft 388kts
16-Oct-17 18:40 38.018273 -111.589865 243 36491ft 389kts
16-Oct-17 18:41 37.964754 -111.707714 243 36484ft 388kts
16-Oct-17 18:42 37.910720 -111.826221 243 36486ft 389kts
16-Oct-17 18:43 37.856922 -111.943232 243 36486ft 389kts
16-Oct-17 18:44 37.802605 -112.061525 243 36486ft 389kts
16-Oct-17 18:45 37.748242 -112.179338 243 36485ft 389kts
16-Oct-17 18:46 37.693975 -112.296492 242 36484ft 388kts
16-Oct-17 18:47 37.627609 -112.405300 236 35718ft 390kts
16-Oct-17 18:48 37.561183 -112.513826 236 34541ft 395kts
16-Oct-17 18:49 37.493818 -112.623770 236 33243ft 399kts
16-Oct-17 18:50 37.426555 -112.733414 235 31752ft 405kts
16-Oct-17 18:51 37.357249 -112.845803 235 30398ft 410kts
16-Oct-17 18:52 37.286215 -112.960587 235 29123ft 419kts
16-Oct-17 18:53 37.215890 -113.073800 234 27827ft 413kts
16-Oct-17 18:54 37.145295 -113.187074 234 26373ft 409kts
16-Oct-17 18:55 37.075544 -113.298624 234 25072ft 406kts
16-Oct-17 18:56 37.006588 -113.408527 234 23821ft 401kts
16-Oct-17 18:57 36.938316 -113.516988 234 22562ft 394kts
16-Oct-17 18:58 36.871211 -113.622997 234 21476ft 389kts
16-Oct-17 18:59 36.805019 -113.727520 233 20465ft 385kts
16-Oct-17 19:00 36.739127 -113.831247 232 19267ft 380kts
16-Oct-17 19:01 36.673382 -113.934388 233 18073ft 377kts
16-Oct-17 19:02 36.608810 -114.035385 232 16883ft 372kts
16-Oct-17 19:03 36.550639 -114.140000 241 15687ft 365kts
16-Oct-17 19:04 36.501038 -114.248964 241 14493ft 360kts
16-Oct-17 19:05 36.453432 -114.353335 241 13276ft 329kts
16-Oct-17 19:06 36.408742 -114.451034 241 12100ft 324kts
16-Oct-17 19:07 36.349029 -114.524986 218 11999ft 302kts
16-Oct-17 19:08 36.288648 -114.583090 218 11990ft 253kts
16-Oct-17 19:09 36.232816 -114.636802 218 11399ft 254kts
16-Oct-17 19:10 36.177875 -114.688943 217 9954ft 250kts
16-Oct-17 19:11 36.123318 -114.741693 217 8464ft 248kts
16-Oct-17 19:12 36.073916 -114.798536 248 6992ft 243kts
16-Oct-17 19:13 36.071852 -114.876701 274 5918ft 215kts
16-Oct-17 19:14 36.073825 -114.945692 270 5084ft 195kts
16-Oct-17 19:15 36.073698 -115.009681 270 4018ft 171kts
16-Oct-17 19:16 36.073665 -115.063657 271 3182ft 143kts
16-Oct-17 19:17 36.073654 -115.111773 271 2416ft 138kts
16-Oct-17 19:18 36.073758 -115.147963 282 2148ft 39kts
16-Oct-17 19:19 36.074950 -115.150896 315 2148ft 10kts
16-Oct-17 19:20 36.078045 -115.151790 89 2148ft 15kts
16-Oct-17 19:21 36.077577 -115.144208 94 2148ft 26kts
16-Oct-17 19:22 36.079647 -115.140950 58 2148ft 8kts
16-Oct-17 19:23 36.079994 -115.140321 54 2148ft 0kts
16-Oct-17 19:24 36.079994 -115.140321 54 2148ft 0kts
16-Oct-17 19:25 36.079994 -115.140321 54 2148ft 0kts
16-Oct-17 19:26 36.079994 -115.140321 54 2148ft 0kts
16-Oct-17 19:27 36.079994 -115.140321 54 2148ft 0kts
16-Oct-17 19:27 36.079994 -115.140321 54 2148ft 0kts

Navigation Log

Ident Type
Flight plan parsing failed, navigation log unavailable